createdAt,value
2023-06-18T00:02:26.948Z,5.38
2023-06-18T00:07:28.434Z,5.32
2023-06-18T00:12:29.868Z,5.03
2023-06-18T00:17:31.690Z,4.60
2023-06-18T00:22:39.090Z,5.30
2023-06-18T00:27:41.549Z,5.03
2023-06-18T00:32:45.152Z,5.20
2023-06-18T00:37:46.722Z,4.57
2023-06-18T00:42:49.721Z,4.47
2023-06-18T00:47:51.425Z,4.70
2023-06-18T00:53:00.324Z,3.55
2023-06-18T00:58:03.584Z,4.35
2023-06-18T01:03:07.529Z,3.72
2023-06-18T01:08:13.306Z,3.72
2023-06-18T01:13:15.737Z,3.97
2023-06-18T01:18:17.588Z,3.15
2023-06-18T01:23:28.718Z,3.60
2023-06-18T01:28:30.678Z,4.18
2023-06-18T01:33:35.544Z,3.20
2023-06-18T01:38:44.735Z,4.00
2023-06-18T01:43:58.249Z,3.55
2023-06-18T01:49:05.366Z,3.55
2023-06-18T01:54:08.458Z,3.75
2023-06-18T01:59:10.353Z,3.22
2023-06-18T02:04:11.729Z,3.53
2023-06-18T02:09:13.240Z,3.38
2023-06-18T02:14:14.661Z,4.35
2023-06-18T02:19:16.109Z,3.60
2023-06-18T02:24:17.800Z,3.72
2023-06-18T02:29:19.287Z,3.25
2023-06-18T02:34:20.728Z,3.72
2023-06-18T02:39:22.740Z,4.75
2023-06-18T02:44:25.506Z,4.25
2023-06-18T02:49:28.491Z,3.60
2023-06-18T02:54:29.864Z,4.03
2023-06-18T02:59:31.242Z,4.03
2023-06-18T03:04:32.627Z,3.80
2023-06-18T03:09:34.155Z,3.58
2023-06-18T03:14:35.613Z,4.45
2023-06-18T03:19:37.040Z,4.60
2023-06-18T03:24:39.589Z,4.63
2023-06-18T03:29:41.797Z,3.58
2023-06-18T03:34:43.424Z,4.32
2023-06-18T03:39:45.439Z,4.00
2023-06-18T03:44:46.825Z,4.45
2023-06-18T03:49:48.273Z,4.57
2023-06-18T03:54:49.697Z,5.20
2023-06-18T03:59:52.935Z,5.95
2023-06-18T04:04:54.315Z,4.90
2023-06-18T04:09:55.683Z,4.40
2023-06-18T04:14:57.062Z,4.95
2023-06-18T04:19:58.477Z,4.60
2023-06-18T04:25:00.040Z,4.65
2023-06-18T04:30:01.501Z,4.60
2023-06-18T04:35:03.105Z,4.28
2023-06-18T04:40:08.102Z,4.50
2023-06-18T04:45:10.335Z,4.82
2023-06-18T04:50:11.773Z,4.55
2023-06-18T04:55:13.213Z,5.13
2023-06-18T05:00:15.285Z,4.82
2023-06-18T05:05:17.128Z,5.45
2023-06-18T05:10:18.712Z,4.63
2023-06-18T05:15:20.673Z,5.82
2023-06-18T05:20:22.291Z,5.25
2023-06-18T05:25:23.937Z,5.05
2023-06-18T05:30:25.541Z,5.18
2023-06-18T05:35:27.120Z,5.03
2023-06-18T05:40:28.734Z,4.90
2023-06-18T05:45:30.283Z,5.10
2023-06-18T05:50:31.657Z,4.25
2023-06-18T05:55:33.235Z,4.95
2023-06-18T06:00:34.646Z,4.45
2023-06-18T06:05:36.308Z,4.40
2023-06-18T06:10:37.722Z,4.55
2023-06-18T06:15:39.231Z,4.80
2023-06-18T06:20:40.714Z,4.85
2023-06-18T06:25:42.266Z,4.22
2023-06-18T06:30:43.633Z,5.28
2023-06-18T06:35:45.798Z,4.50
2023-06-18T06:40:47.233Z,3.75
2023-06-18T06:45:48.650Z,4.97
2023-06-18T06:50:50.037Z,4.55
2023-06-18T06:55:51.481Z,4.65
2023-06-18T07:00:52.930Z,3.75
2023-06-18T07:05:54.378Z,4.50
2023-06-18T07:10:55.752Z,4.38
2023-06-18T07:15:57.474Z,3.97
2023-06-18T07:20:58.898Z,3.78
2023-06-18T07:26:00.386Z,4.03
2023-06-18T07:31:02.163Z,4.45
2023-06-18T07:36:03.710Z,4.30
2023-06-18T07:41:05.129Z,4.40
2023-06-18T07:46:06.510Z,3.58
2023-06-18T07:51:07.990Z,4.93
2023-06-18T07:56:09.599Z,4.28
2023-06-18T08:01:11.371Z,3.90
2023-06-18T08:06:12.896Z,4.22
2023-06-18T08:11:14.257Z,4.60
2023-06-18T08:16:17.271Z,4.65
2023-06-18T08:21:18.699Z,3.92
2023-06-18T08:26:22.186Z,4.15
2023-06-18T08:31:23.644Z,3.95
2023-06-18T08:36:25.032Z,4.00
2023-06-18T08:41:27.288Z,4.55
2023-06-18T08:46:31.665Z,3.72
2023-06-18T08:51:34.350Z,4.38
2023-06-18T08:56:42.549Z,3.72
2023-06-18T09:01:44.682Z,4.15
2023-06-18T09:06:46.663Z,4.35
2023-06-18T09:11:48.081Z,3.95
2023-06-18T09:16:49.837Z,3.65
2023-06-18T09:21:52.700Z,4.13
2023-06-18T09:27:02.693Z,4.22
2023-06-18T09:32:22.053Z,3.75
2023-06-18T09:37:23.586Z,3.75
2023-06-18T09:42:31.151Z,3.72
2023-06-18T09:47:33.185Z,4.15
2023-06-18T09:52:45.598Z,3.35
2023-06-18T09:57:50.480Z,3.63
2023-06-18T10:02:52.026Z,3.47
2023-06-18T10:07:53.700Z,3.95
2023-06-18T10:13:00.913Z,3.38
2023-06-18T10:18:04.174Z,3.25
2023-06-18T10:23:07.592Z,3.75
2023-06-18T10:28:09.090Z,3.70
2023-06-18T10:33:10.592Z,3.53
2023-06-18T10:38:12.428Z,3.75
2023-06-18T10:43:13.799Z,3.15
2023-06-18T10:48:17.429Z,4.00
2023-06-18T10:53:25.498Z,3.75
2023-06-18T10:58:34.791Z,3.85
2023-06-18T11:03:39.200Z,4.03
2023-06-18T11:08:40.828Z,3.22
2023-06-18T11:13:51.948Z,3.50
2023-06-18T11:18:56.256Z,4.32
2023-06-18T11:23:57.995Z,3.28
2023-06-18T11:29:02.090Z,3.10
2023-06-18T11:34:08.687Z,3.80
2023-06-18T11:39:10.091Z,2.45
2023-06-18T11:44:11.450Z,2.78
2023-06-18T11:49:16.400Z,2.53
2023-06-18T11:54:17.928Z,2.60
2023-06-18T11:59:20.031Z,2.63
2023-06-18T12:04:21.926Z,3.30
2023-06-18T12:09:23.472Z,2.72
2023-06-18T12:14:38.853Z,2.75
2023-06-18T12:19:44.898Z,2.83
2023-06-18T12:24:46.983Z,2.80
2023-06-18T12:29:48.416Z,2.72
2023-06-18T12:34:49.786Z,2.92
2023-06-18T12:40:19.801Z,2.75
2023-06-18T12:45:28.596Z,2.97
2023-06-18T12:50:35.310Z,2.78
2023-06-18T12:55:37.146Z,2.90
2023-06-18T13:00:38.518Z,3.33
2023-06-18T13:05:39.943Z,2.75
2023-06-18T13:10:41.640Z,2.67
2023-06-18T13:15:43.728Z,3.08
2023-06-18T13:20:46.433Z,2.33
2023-06-18T13:25:47.793Z,2.75
2023-06-18T13:30:49.376Z,2.70
2023-06-18T13:35:50.959Z,2.60
2023-06-18T13:40:52.421Z,2.72
2023-06-18T13:45:54.659Z,2.60
2023-06-18T13:50:56.869Z,3.00
2023-06-18T13:55:58.291Z,2.40
2023-06-18T14:00:59.654Z,2.30
2023-06-18T14:06:01.230Z,2.38
2023-06-18T14:11:02.615Z,2.50
2023-06-18T14:16:11.093Z,2.45
2023-06-18T14:21:14.335Z,2.13
2023-06-18T14:26:15.681Z,2.40
2023-06-18T14:31:17.233Z,2.47
2023-06-18T14:36:18.835Z,2.63
2023-06-18T14:41:20.416Z,2.03
2023-06-18T14:46:21.866Z,2.00
2023-06-18T14:51:23.333Z,1.83
2023-06-18T14:56:28.371Z,1.92
2023-06-18T15:01:29.944Z,1.67
2023-06-18T15:06:33.106Z,2.10
2023-06-18T15:11:34.559Z,2.10
2023-06-18T15:16:36.043Z,1.75
2023-06-18T15:21:37.468Z,2.08
2023-06-18T15:26:38.834Z,2.08
2023-06-18T15:31:40.200Z,2.30
2023-06-18T15:36:41.588Z,1.80
2023-06-18T15:41:42.959Z,2.92
2023-06-18T15:46:45.633Z,2.65
2023-06-18T15:51:47.028Z,2.10
2023-06-18T15:56:48.493Z,2.50
2023-06-18T16:01:50.095Z,2.60
2023-06-18T16:06:51.754Z,2.55
2023-06-18T16:11:53.276Z,2.63
2023-06-18T16:16:54.733Z,2.25
2023-06-18T16:21:56.231Z,3.40
2023-06-18T16:27:00.765Z,2.47
2023-06-18T16:32:02.389Z,2.75
2023-06-18T16:37:04.151Z,2.30
2023-06-18T16:42:05.986Z,2.08
2023-06-18T16:47:07.538Z,2.40
2023-06-18T16:52:08.922Z,2.20
2023-06-18T16:57:10.370Z,2.80
2023-06-18T17:02:11.873Z,2.70
2023-06-18T17:07:13.290Z,3.10
2023-06-18T17:12:14.680Z,3.05
2023-06-18T17:17:16.371Z,3.28
2023-06-18T17:22:17.828Z,3.22
2023-06-18T17:27:20.492Z,2.92
2023-06-18T17:32:22.015Z,2.83
2023-06-18T17:37:23.493Z,2.60
2023-06-18T17:42:24.896Z,3.67
2023-06-18T17:47:26.365Z,7.53
2023-06-18T17:52:27.845Z,4.78
2023-06-18T17:57:29.241Z,4.50
2023-06-18T18:02:30.745Z,5.60
2023-06-18T18:07:32.579Z,8.02
2023-06-18T18:12:33.992Z,4.75
2023-06-18T18:17:35.396Z,4.45
2023-06-18T18:22:36.791Z,4.80
2023-06-18T18:27:38.188Z,3.85
2023-06-18T18:32:39.731Z,3.60
2023-06-18T18:37:41.153Z,3.40
2023-06-18T18:42:42.543Z,3.40
2023-06-18T18:47:44.056Z,3.33
2023-06-18T18:52:45.482Z,3.08
2023-06-18T18:57:46.928Z,2.95
2023-06-18T19:02:48.418Z,3.50
2023-06-18T19:07:50.807Z,3.58
2023-06-18T19:12:54.120Z,3.60
2023-06-18T19:17:55.615Z,3.83
2023-06-18T19:22:57.194Z,3.78
2023-06-18T19:27:58.847Z,4.07
2023-06-18T19:33:00.254Z,4.22
2023-06-18T19:38:01.676Z,3.40
2023-06-18T19:43:03.233Z,4.28
2023-06-18T19:48:04.804Z,4.15
2023-06-18T19:53:06.203Z,3.83
2023-06-18T19:58:08.107Z,4.00
2023-06-18T20:03:09.658Z,4.20
2023-06-18T20:08:11.154Z,3.70
2023-06-18T20:13:12.541Z,4.15
2023-06-18T20:18:16.525Z,4.00
2023-06-18T20:23:18.169Z,3.90
2023-06-18T20:28:19.548Z,4.38
2023-06-18T20:33:20.950Z,4.95
2023-06-18T20:38:22.353Z,4.28
2023-06-18T20:43:23.795Z,5.28
2023-06-18T20:48:27.705Z,5.07
2023-06-18T20:53:30.784Z,4.90
2023-06-18T20:58:32.211Z,5.05
2023-06-18T21:03:34.593Z,5.18
2023-06-18T21:08:36.310Z,4.57
2023-06-18T21:13:37.722Z,4.25
2023-06-18T21:18:39.350Z,4.82
2023-06-18T21:23:40.803Z,4.07
2023-06-18T21:28:42.417Z,4.18
2023-06-18T21:33:45.471Z,4.53
2023-06-18T21:38:48.570Z,4.15
2023-06-18T21:43:49.996Z,4.43
2023-06-18T21:48:51.554Z,4.53
2023-06-18T21:53:53.073Z,4.78
2023-06-18T21:58:54.562Z,4.75
2023-06-18T22:03:56.677Z,5.47
2023-06-18T22:08:58.328Z,4.88
2023-06-18T22:13:59.843Z,4.90
2023-06-18T22:19:11.967Z,4.80
2023-06-18T22:24:13.707Z,5.03
2023-06-18T22:29:15.265Z,4.72
2023-06-18T22:34:25.431Z,4.32
2023-06-18T22:39:37.894Z,4.55
2023-06-18T22:44:39.334Z,4.78
2023-06-18T22:49:40.701Z,5.47
2023-06-18T22:54:42.098Z,5.70
2023-06-18T22:59:43.463Z,5.50
2023-06-18T23:04:44.842Z,5.47
2023-06-18T23:09:46.227Z,5.68
2023-06-18T23:14:47.622Z,5.65
2023-06-18T23:19:49.003Z,6.35
2023-06-18T23:24:50.374Z,7.22
2023-06-18T23:29:51.842Z,6.63
2023-06-18T23:34:53.211Z,5.78
2023-06-18T23:39:55.450Z,6.95
2023-06-18T23:44:56.867Z,6.10
2023-06-18T23:49:58.318Z,5.80
2023-06-18T23:54:59.728Z,5.75
